Startpagina
METAR-TAF:

METAR-TAF

Vliegvelden :

Internationale Luchthaven Oostende-Brugge

Oostende, België

breedte: 51-12N, lengte: 002-52E, hoogte: 4 m

Actueel weer

Dit bericht is 23 minuten geleden gemaakt, om 01:50 UTC
Wind 11 kt uit het oosten
Temperatuur 3°C
Vochtigheid 75%
Druk 1028 hPa
Zicht 10 km of meer
geen wolken onder 1500 m en geen cumulonimbus

METAR: EBOS 180150Z 08011KT CAVOK 03/M01 Q1028 NOSIG

Tijdstip: 03:13 (02:13 UTC)

Verwachting

Dit bericht is 3 uur en het 13 minuten geleden gemaakt, om 23:00 UTC
Verwachting geldig van 18 om 00 UTC tot 19 om 06 UTC
Wind 12 kt uit het oosten
Zicht 10 km of meer
geen wolken onder 1500 m en geen cumulonimbus
Kans 30% :
Tijdelijke
van 19 om 01 UTC tot 19 om 06 UTC
Gebroken wolken op 700 ft

TAF: EBOS 172300Z 1800/1906 08012KT CAVOK PROB30 TEMPO 1901/1906 BKN007

Waarnemingen en weersverwachtingen van meer dan 4000 vliegvelden (METAR en TAF).

De beschikbare stations zijn de gele en rode punten op de kaart.

Ga met uw muis naar het station om de naam te zien.

Klik dan om waarnemingen en weersverwachtingen te zien.

kaart wijzigen: klik op de groene knoppen met een zwart kruis om in te zoomen, op de groene knop met een streepje om uit te zoomen of op de groene pijlen voor aangrenzende kaarten.


METAR-TAF: